sensor_id;sensor_type;location;lat;lon;timestamp;pressure;altitude;pressure_sealevel;temperature;humidity
31225;BME280;17847;31.524;74.366;2023-05-22T00:01:22;97888.41;;;27.96;49.54
31225;BME280;17847;31.524;74.366;2023-05-22T00:03:54;97887.59;;;27.95;51.10
31225;BME280;17847;31.524;74.366;2023-05-22T00:06:24;97897.53;;;27.91;50.39
31225;BME280;17847;31.524;74.366;2023-05-22T00:08:56;97892.25;;;27.86;51.21
31225;BME280;17847;31.524;74.366;2023-05-22T00:11:26;97897.06;;;27.89;51.17
31225;BME280;17847;31.524;74.366;2023-05-22T00:13:55;97898.81;;;27.85;50.31
31225;BME280;17847;31.524;74.366;2023-05-22T00:16:24;97898.50;;;27.87;50.30
31225;BME280;17847;31.524;74.366;2023-05-22T00:18:54;97904.91;;;27.91;51.55
31225;BME280;17847;31.524;74.366;2023-05-22T00:21:25;97904.09;;;27.90;50.75
31225;BME280;17847;31.524;74.366;2023-05-22T00:23:55;97902.19;;;27.91;51.70
31225;BME280;17847;31.524;74.366;2023-05-22T00:26:25;97915.94;;;27.94;53.27
31225;BME280;17847;31.524;74.366;2023-05-22T00:28:54;97908.56;;;27.95;53.63
31225;BME280;17847;31.524;74.366;2023-05-22T00:31:24;97918.97;;;27.93;53.31
31225;BME280;17847;31.524;74.366;2023-05-22T00:33:53;97921.69;;;27.93;52.82
31225;BME280;17847;31.524;74.366;2023-05-22T00:36:23;97921.53;;;27.98;54.65
31225;BME280;17847;31.524;74.366;2023-05-22T00:38:52;97930.00;;;28.05;55.00
31225;BME280;17847;31.524;74.366;2023-05-22T00:41:21;97942.97;;;28.08;54.55
31225;BME280;17847;31.524;74.366;2023-05-22T00:43:50;97936.09;;;28.10;53.36
31225;BME280;17847;31.524;74.366;2023-05-22T00:46:20;97938.19;;;28.13;53.00
31225;BME280;17847;31.524;74.366;2023-05-22T00:48:51;97947.13;;;28.23;53.77
31225;BME280;17847;31.524;74.366;2023-05-22T00:51:21;97945.19;;;28.23;52.67
31225;BME280;17847;31.524;74.366;2023-05-22T00:53:51;97945.50;;;28.30;52.23
31225;BME280;17847;31.524;74.366;2023-05-22T00:56:22;97946.44;;;28.34;52.00
31225;BME280;17847;31.524;74.366;2023-05-22T00:58:55;97953.75;;;28.42;49.87
31225;BME280;17847;31.524;74.366;2023-05-22T01:01:25;97948.00;;;28.44;51.40
31225;BME280;17847;31.524;74.366;2023-05-22T01:04:01;97953.22;;;28.57;50.73
31225;BME280;17847;31.524;74.366;2023-05-22T01:06:35;97958.47;;;28.71;51.58
31225;BME280;17847;31.524;74.366;2023-05-22T01:09:05;97964.69;;;28.80;51.59
31225;BME280;17847;31.524;74.366;2023-05-22T01:11:40;97970.28;;;28.84;51.07
31225;BME280;17847;31.524;74.366;2023-05-22T01:14:20;97975.88;;;28.87;49.99
31225;BME280;17847;31.524;74.366;2023-05-22T01:32:01;98011.06;;;29.01;51.43
31225;BME280;17847;31.524;74.366;2023-05-22T01:34:33;98022.16;;;28.96;48.64
31225;BME280;17847;31.524;74.366;2023-05-22T01:37:05;98022.59;;;29.07;50.23
31225;BME280;17847;31.524;74.366;2023-05-22T01:39:35;98019.63;;;29.20;49.90
31225;BME280;17847;31.524;74.366;2023-05-22T01:42:05;98017.00;;;29.32;49.09
31225;BME280;17847;31.524;74.366;2023-05-22T01:44:35;98017.47;;;29.34;48.01
31225;BME280;17847;31.524;74.366;2023-05-22T01:47:04;98030.06;;;29.48;47.09
31225;BME280;17847;31.524;74.366;2023-05-22T01:49:36;98028.19;;;29.81;47.40
31225;BME280;17847;31.524;74.366;2023-05-22T01:52:55;98040.72;;;30.36;49.77
31225;BME280;17847;31.524;74.366;2023-05-22T01:55:51;98043.91;;;30.83;46.60
31225;BME280;17847;31.524;74.366;2023-05-22T02:00:55;98053.38;;;31.58;40.58
31225;BME280;17847;31.524;74.366;2023-05-22T02:03:32;98049.47;;;32.11;37.83
31225;BME280;17847;31.524;74.366;2023-05-22T02:06:09;98045.75;;;32.47;36.51
31225;BME280;17847;31.524;74.366;2023-05-22T02:08:41;98052.69;;;32.88;37.19
31225;BME280;17847;31.524;74.366;2023-05-22T02:11:11;98055.56;;;33.11;36.58
31225;BME280;17847;31.524;74.366;2023-05-22T02:13:42;98057.81;;;33.36;35.40
31225;BME280;17847;31.524;74.366;2023-05-22T02:16:12;98057.81;;;33.71;34.84
31225;BME280;17847;31.524;74.366;2023-05-22T02:18:41;98056.88;;;33.83;32.78
31225;BME280;17847;31.524;74.366;2023-05-22T02:21:12;98055.22;;;34.17;33.82
31225;BME280;17847;31.524;74.366;2023-05-22T02:23:41;98054.00;;;34.34;32.98
31225;BME280;17847;31.524;74.366;2023-05-22T02:26:11;98048.75;;;34.48;31.58
31225;BME280;17847;31.524;74.366;2023-05-22T02:28:40;98057.53;;;34.76;32.37
31225;BME280;17847;31.524;74.366;2023-05-22T02:31:12;98060.94;;;34.92;33.32
31225;BME280;17847;31.524;74.366;2023-05-22T02:33:41;98059.00;;;35.15;32.61
31225;BME280;17847;31.524;74.366;2023-05-22T02:36:10;98064.16;;;35.43;30.43
31225;BME280;17847;31.524;74.366;2023-05-22T02:38:41;98063.06;;;35.51;30.60
31225;BME280;17847;31.524;74.366;2023-05-22T02:41:11;98060.81;;;35.57;31.75
31225;BME280;17847;31.524;74.366;2023-05-22T02:43:40;98061.53;;;35.80;32.74
31225;BME280;17847;31.524;74.366;2023-05-22T02:46:09;98064.13;;;35.99;31.21
31225;BME280;17847;31.524;74.366;2023-05-22T02:48:38;98073.47;;;36.21;30.48
31225;BME280;17847;31.524;74.366;2023-05-22T02:51:08;98063.34;;;36.29;29.38
31225;BME280;17847;31.524;74.366;2023-05-22T02:53:38;98069.34;;;36.38;27.43
31225;BME280;17847;31.524;74.366;2023-05-22T02:56:09;98066.28;;;36.46;27.15
31225;BME280;17847;31.524;74.366;2023-05-22T02:58:39;98067.25;;;36.65;27.81
31225;BME280;17847;31.524;74.366;2023-05-22T03:01:09;98074.84;;;36.75;27.87
31225;BME280;17847;31.524;74.366;2023-05-22T03:03:40;98074.19;;;36.88;25.79
31225;BME280;17847;31.524;74.366;2023-05-22T03:06:11;98073.88;;;36.97;27.06
31225;BME280;17847;31.524;74.366;2023-05-22T03:08:41;98067.19;;;37.02;27.38
31225;BME280;17847;31.524;74.366;2023-05-22T03:11:11;98064.81;;;37.00;26.54
31225;BME280;17847;31.524;74.366;2023-05-22T03:13:41;98071.94;;;37.01;26.10
31225;BME280;17847;31.524;74.366;2023-05-22T03:16:10;98072.44;;;37.10;25.28
31225;BME280;17847;31.524;74.366;2023-05-22T03:18:43;98072.53;;;36.77;25.22
31225;BME280;17847;31.524;74.366;2023-05-22T03:21:14;98066.28;;;36.87;26.81
31225;BME280;17847;31.524;74.366;2023-05-22T03:23:43;98076.66;;;37.01;25.95
31225;BME280;17847;31.524;74.366;2023-05-22T03:26:14;98074.44;;;37.13;26.27
31225;BME280;17847;31.524;74.366;2023-05-22T03:28:44;98070.28;;;37.41;27.98
31225;BME280;17847;31.524;74.366;2023-05-22T03:31:14;98072.38;;;37.58;25.16
31225;BME280;17847;31.524;74.366;2023-05-22T03:33:57;98074.78;;;37.63;27.20
31225;BME280;17847;31.524;74.366;2023-05-22T03:36:27;98066.84;;;37.54;25.83
31225;BME280;17847;31.524;74.366;2023-05-22T03:39:00;98060.59;;;37.68;24.78
31225;BME280;17847;31.524;74.366;2023-05-22T03:41:34;98057.66;;;37.43;23.41
31225;BME280;17847;31.524;74.366;2023-05-22T03:44:05;98063.00;;;37.73;27.99
31225;BME280;17847;31.524;74.366;2023-05-22T03:46:34;98055.25;;;38.03;30.13
31225;BME280;17847;31.524;74.366;2023-05-22T03:49:05;98062.38;;;38.08;29.54
31225;BME280;17847;31.524;74.366;2023-05-22T03:51:36;98056.84;;;38.04;24.99
31225;BME280;17847;31.524;74.366;2023-05-22T03:54:06;98054.50;;;38.17;26.83
31225;BME280;17847;31.524;74.366;2023-05-22T03:56:35;98054.56;;;38.31;29.22
31225;BME280;17847;31.524;74.366;2023-05-22T03:59:04;98055.00;;;38.44;29.31
31225;BME280;17847;31.524;74.366;2023-05-22T04:01:33;98046.72;;;38.58;29.82
31225;BME280;17847;31.524;74.366;2023-05-22T04:04:06;98045.16;;;38.68;26.63
31225;BME280;17847;31.524;74.366;2023-05-22T04:06:37;98048.75;;;38.93;27.95
31225;BME280;17847;31.524;74.366;2023-05-22T04:09:18;98048.78;;;39.03;24.80
31225;BME280;17847;31.524;74.366;2023-05-22T04:11:48;98052.69;;;39.24;25.06
31225;BME280;17847;31.524;74.366;2023-05-22T04:14:17;98047.56;;;39.12;28.86
31225;BME280;17847;31.524;74.366;2023-05-22T04:16:47;98045.16;;;39.35;27.25
31225;BME280;17847;31.524;74.366;2023-05-22T04:19:17;98045.56;;;39.51;25.20
31225;BME280;17847;31.524;74.366;2023-05-22T04:21:47;98048.75;;;39.42;26.33
31225;BME280;17847;31.524;74.366;2023-05-22T04:24:17;98043.13;;;39.78;22.47
31225;BME280;17847;31.524;74.366;2023-05-22T04:26:46;98041.97;;;39.61;22.19
31225;BME280;17847;31.524;74.366;2023-05-22T04:29:15;98040.28;;;39.92;21.92
31225;BME280;17847;31.524;74.366;2023-05-22T04:31:47;98031.66;;;39.65;19.57
31225;BME280;17847;31.524;74.366;2023-05-22T04:34:16;98022.78;;;40.02;29.61
31225;BME280;17847;31.524;74.366;2023-05-22T04:36:46;98031.47;;;40.11;20.55
31225;BME280;17847;31.524;74.366;2023-05-22T04:39:17;98038.13;;;40.28;24.21
31225;BME280;17847;31.524;74.366;2023-05-22T04:41:46;98033.19;;;40.57;22.78
31225;BME280;17847;31.524;74.366;2023-05-22T04:44:17;98041.50;;;40.67;24.93
31225;BME280;17847;31.524;74.366;2023-05-22T04:46:51;98042.81;;;40.45;18.04
31225;BME280;17847;31.524;74.366;2023-05-22T04:49:20;98037.78;;;40.85;25.17
31225;BME280;17847;31.524;74.366;2023-05-22T04:51:49;98043.22;;;40.44;21.34
31225;BME280;17847;31.524;74.366;2023-05-22T04:54:19;98039.84;;;40.73;21.23
31225;BME280;17847;31.524;74.366;2023-05-22T04:56:49;98047.22;;;40.94;27.02
31225;BME280;17847;31.524;74.366;2023-05-22T04:59:21;98044.09;;;40.89;20.13
31225;BME280;17847;31.524;74.366;2023-05-22T05:01:51;98036.84;;;41.05;23.07
31225;BME280;17847;31.524;74.366;2023-05-22T05:04:20;98040.28;;;41.16;23.37
31225;BME280;17847;31.524;74.366;2023-05-22T05:06:50;98047.00;;;41.22;24.10
31225;BME280;17847;31.524;74.366;2023-05-22T05:09:24;98041.41;;;41.26;26.54
31225;BME280;17847;31.524;74.366;2023-05-22T05:11:54;98041.28;;;41.37;18.35
31225;BME280;17847;31.524;74.366;2023-05-22T05:14:24;98045.84;;;41.20;26.24
31225;BME280;17847;31.524;74.366;2023-05-22T05:16:54;98035.97;;;41.12;21.46
31225;BME280;17847;31.524;74.366;2023-05-22T05:19:24;98039.50;;;41.19;26.88
31225;BME280;17847;31.524;74.366;2023-05-22T05:21:54;98035.53;;;41.17;25.91
31225;BME280;17847;31.524;74.366;2023-05-22T05:24:24;98042.22;;;41.23;24.75
31225;BME280;17847;31.524;74.366;2023-05-22T05:26:53;98035.38;;;41.31;22.03
31225;BME280;17847;31.524;74.366;2023-05-22T05:29:22;98044.94;;;41.30;23.09
31225;BME280;17847;31.524;74.366;2023-05-22T05:32:04;98041.59;;;41.49;25.73
31225;BME280;17847;31.524;74.366;2023-05-22T05:34:50;98036.50;;;41.41;21.57
31225;BME280;17847;31.524;74.366;2023-05-22T05:37:43;98046.06;;;41.36;24.43
31225;BME280;17847;31.524;74.366;2023-05-22T05:40:13;98043.81;;;41.24;24.79
31225;BME280;17847;31.524;74.366;2023-05-22T05:42:47;98042.97;;;41.27;24.57
31225;BME280;17847;31.524;74.366;2023-05-22T05:45:22;98038.56;;;41.30;21.96
31225;BME280;17847;31.524;74.366;2023-05-22T05:47:52;98034.25;;;41.25;19.58
31225;BME280;17847;31.524;74.366;2023-05-22T05:50:21;98036.75;;;41.16;19.09
31225;BME280;17847;31.524;74.366;2023-05-22T05:52:53;98037.88;;;41.22;20.08
31225;BME280;17847;31.524;74.366;2023-05-22T05:55:23;98041.47;;;41.19;19.74
31225;BME280;17847;31.524;74.366;2023-05-22T05:57:53;98034.91;;;40.95;19.57
31225;BME280;17847;31.524;74.366;2023-05-22T06:00:35;98035.69;;;41.03;22.22
31225;BME280;17847;31.524;74.366;2023-05-22T06:03:05;98042.88;;;40.93;20.20
31225;BME280;17847;31.524;74.366;2023-05-22T06:05:55;98042.75;;;41.11;19.50
31225;BME280;17847;31.524;74.366;2023-05-22T06:08:45;98036.00;;;41.08;23.56
31225;BME280;17847;31.524;74.366;2023-05-22T06:11:15;98044.31;;;41.12;23.46
31225;BME280;17847;31.524;74.366;2023-05-22T06:13:54;98027.75;;;40.98;20.28
31225;BME280;17847;31.524;74.366;2023-05-22T06:16:24;98032.09;;;41.02;19.95
31225;BME280;17847;31.524;74.366;2023-05-22T06:18:54;98031.38;;;40.91;19.74
31225;BME280;17847;31.524;74.366;2023-05-22T06:21:26;98031.69;;;41.04;20.99
31225;BME280;17847;31.524;74.366;2023-05-22T06:23:55;98031.47;;;40.80;17.55
31225;BME280;17847;31.524;74.366;2023-05-22T06:26:25;98032.88;;;41.06;20.02
31225;BME280;17847;31.524;74.366;2023-05-22T06:28:55;98024.56;;;41.03;18.82
31225;BME280;17847;31.524;74.366;2023-05-22T06:31:27;98028.06;;;41.10;19.72
31225;BME280;17847;31.524;74.366;2023-05-22T06:33:58;98022.84;;;41.16;21.73
31225;BME280;17847;31.524;74.366;2023-05-22T06:36:28;98018.19;;;40.99;21.16
31225;BME280;17847;31.524;74.366;2023-05-22T06:38:58;98012.63;;;41.06;19.55
31225;BME280;17847;31.524;74.366;2023-05-22T06:41:46;98008.47;;;41.24;17.69
31225;BME280;17847;31.524;74.366;2023-05-22T06:44:15;98015.03;;;41.45;21.93
31225;BME280;17847;31.524;74.366;2023-05-22T06:46:52;98010.66;;;41.40;18.41
31225;BME280;17847;31.524;74.366;2023-05-22T06:49:24;98004.91;;;41.24;19.73
31225;BME280;17847;31.524;74.366;2023-05-22T06:51:55;98004.69;;;41.04;21.91
31225;BME280;17847;31.524;74.366;2023-05-22T06:54:25;98002.34;;;40.96;21.49
31225;BME280;17847;31.524;74.366;2023-05-22T06:56:57;98002.28;;;41.06;23.33
31225;BME280;17847;31.524;74.366;2023-05-22T06:59:28;98002.59;;;41.15;21.14
31225;BME280;17847;31.524;74.366;2023-05-22T07:02:06;97998.13;;;41.25;20.42
31225;BME280;17847;31.524;74.366;2023-05-22T07:04:56;97996.13;;;41.29;22.43
31225;BME280;17847;31.524;74.366;2023-05-22T07:07:33;97994.94;;;41.26;20.29
31225;BME280;17847;31.524;74.366;2023-05-22T07:10:04;97998.06;;;41.32;19.56
31225;BME280;17847;31.524;74.366;2023-05-22T07:12:34;97988.88;;;41.35;18.48
31225;BME280;17847;31.524;74.366;2023-05-22T07:15:05;97988.94;;;41.32;19.31
31225;BME280;17847;31.524;74.366;2023-05-22T07:17:40;97991.06;;;41.17;20.09
31225;BME280;17847;31.524;74.366;2023-05-22T07:20:12;97984.69;;;41.16;19.42
31225;BME280;17847;31.524;74.366;2023-05-22T07:22:52;97980.78;;;41.14;19.57
31225;BME280;17847;31.524;74.366;2023-05-22T07:25:22;97981.44;;;41.25;21.29
31225;BME280;17847;31.524;74.366;2023-05-22T07:27:51;97976.66;;;41.29;21.78
31225;BME280;17847;31.524;74.366;2023-05-22T07:30:23;97977.09;;;41.24;20.92
31225;BME280;17847;31.524;74.366;2023-05-22T07:32:53;97972.88;;;41.09;19.50
31225;BME280;17847;31.524;74.366;2023-05-22T07:35:22;97979.13;;;41.20;19.36
31225;BME280;17847;31.524;74.366;2023-05-22T07:37:52;97968.38;;;40.77;17.19
31225;BME280;17847;31.524;74.366;2023-05-22T07:40:22;97977.91;;;40.76;19.98
31225;BME280;17847;31.524;74.366;2023-05-22T07:42:53;97969.97;;;40.78;19.58
31225;BME280;17847;31.524;74.366;2023-05-22T07:45:23;97968.34;;;40.85;19.56
31225;BME280;17847;31.524;74.366;2023-05-22T07:47:57;97964.31;;;40.89;16.50
31225;BME280;17847;31.524;74.366;2023-05-22T07:50:28;97964.41;;;40.78;20.85
31225;BME280;17847;31.524;74.366;2023-05-22T07:52:58;97962.38;;;40.82;19.59
31225;BME280;17847;31.524;74.366;2023-05-22T07:55:32;97966.75;;;40.83;19.38
31225;BME280;17847;31.524;74.366;2023-05-22T07:58:02;97969.00;;;40.96;20.53
31225;BME280;17847;31.524;74.366;2023-05-22T08:00:36;97961.16;;;40.87;20.08
31225;BME280;17847;31.524;74.366;2023-05-22T08:03:06;97961.16;;;40.87;19.47
31225;BME280;17847;31.524;74.366;2023-05-22T08:05:35;97958.03;;;40.81;18.16
31225;BME280;17847;31.524;74.366;2023-05-22T08:08:05;97949.28;;;40.83;17.76
31225;BME280;17847;31.524;74.366;2023-05-22T08:10:34;97949.56;;;40.96;19.41
31225;BME280;17847;31.524;74.366;2023-05-22T08:13:07;97946.88;;;40.89;18.77
31225;BME280;17847;31.524;74.366;2023-05-22T08:15:36;97947.19;;;40.94;18.42
31225;BME280;17847;31.524;74.366;2023-05-22T08:18:06;97948.41;;;40.93;19.27
31225;BME280;17847;31.524;74.366;2023-05-22T08:20:36;97942.09;;;40.89;19.48
31225;BME280;17847;31.524;74.366;2023-05-22T08:23:07;97943.69;;;40.87;19.37
31225;BME280;17847;31.524;74.366;2023-05-22T08:25:36;97941.38;;;40.81;18.21
31225;BME280;17847;31.524;74.366;2023-05-22T08:28:05;97933.16;;;40.71;18.39
31225;BME280;17847;31.524;74.366;2023-05-22T08:30:35;97938.75;;;40.64;16.67
31225;BME280;17847;31.524;74.366;2023-05-22T08:33:05;97931.25;;;40.61;19.28
31225;BME280;17847;31.524;74.366;2023-05-22T08:35:35;97934.06;;;40.54;18.45
31225;BME280;17847;31.524;74.366;2023-05-22T08:38:04;97936.41;;;40.62;19.94
31225;BME280;17847;31.524;74.366;2023-05-22T08:40:37;97934.00;;;40.64;20.57
31225;BME280;17847;31.524;74.366;2023-05-22T08:43:11;97916.19;;;40.58;18.45
31225;BME280;17847;31.524;74.366;2023-05-22T08:45:41;97926.94;;;40.53;16.65
31225;BME280;17847;31.524;74.366;2023-05-22T08:48:12;97920.59;;;40.52;17.63
31225;BME280;17847;31.524;74.366;2023-05-22T08:50:43;97922.22;;;40.46;16.64
31225;BME280;17847;31.524;74.366;2023-05-22T08:53:15;97921.84;;;40.44;17.41
31225;BME280;17847;31.524;74.366;2023-05-22T08:55:45;97925.09;;;40.35;17.35
31225;BME280;17847;31.524;74.366;2023-05-22T08:58:15;97925.91;;;40.29;18.92
31225;BME280;17847;31.524;74.366;2023-05-22T09:00:46;97920.44;;;40.15;17.34
31225;BME280;17847;31.524;74.366;2023-05-22T09:03:16;97920.59;;;39.93;16.69
31225;BME280;17847;31.524;74.366;2023-05-22T09:05:49;97915.16;;;39.72;18.21
31225;BME280;17847;31.524;74.366;2023-05-22T09:08:50;97913.56;;;39.78;19.00
31225;BME280;17847;31.524;74.366;2023-05-22T09:11:21;97918.72;;;39.76;19.81
31225;BME280;17847;31.524;74.366;2023-05-22T09:13:51;97913.56;;;39.75;19.77
31225;BME280;17847;31.524;74.366;2023-05-22T09:16:20;97910.72;;;39.89;18.26
31225;BME280;17847;31.524;74.366;2023-05-22T09:18:50;97899.22;;;39.90;18.51
31225;BME280;17847;31.524;74.366;2023-05-22T09:21:19;97888.81;;;40.02;17.88
31225;BME280;17847;31.524;74.366;2023-05-22T09:23:59;97900.66;;;40.13;19.52
31225;BME280;17847;31.524;74.366;2023-05-22T09:26:29;97899.50;;;40.07;19.37
31225;BME280;17847;31.524;74.366;2023-05-22T09:28:58;97901.47;;;40.06;19.68
31225;BME280;17847;31.524;74.366;2023-05-22T09:31:29;97896.34;;;40.05;21.27
31225;BME280;17847;31.524;74.366;2023-05-22T09:33:59;97892.03;;;40.00;20.06
31225;BME280;17847;31.524;74.366;2023-05-22T09:36:30;97891.94;;;40.14;21.81
31225;BME280;17847;31.524;74.366;2023-05-22T09:39:03;97889.19;;;40.07;18.90
31225;BME280;17847;31.524;74.366;2023-05-22T09:41:38;97887.59;;;40.10;20.03
31225;BME280;17847;31.524;74.366;2023-05-22T09:44:12;97889.59;;;40.09;18.88
31225;BME280;17847;31.524;74.366;2023-05-22T09:46:46;97900.72;;;40.02;18.20
31225;BME280;17847;31.524;74.366;2023-05-22T09:49:15;97887.69;;;39.95;18.21
31225;BME280;17847;31.524;74.366;2023-05-22T09:51:46;97881.84;;;39.83;18.97
31225;BME280;17847;31.524;74.366;2023-05-22T09:54:19;97882.69;;;39.69;18.69
31225;BME280;17847;31.524;74.366;2023-05-22T09:56:52;97879.63;;;39.49;19.60
31225;BME280;17847;31.524;74.366;2023-05-22T09:59:27;97878.47;;;39.40;20.62
31225;BME280;17847;31.524;74.366;2023-05-22T10:02:01;97868.97;;;39.41;19.66
31225;BME280;17847;31.524;74.366;2023-05-22T10:04:32;97873.31;;;39.42;20.92
31225;BME280;17847;31.524;74.366;2023-05-22T10:07:02;97874.13;;;39.39;22.08
31225;BME280;17847;31.524;74.366;2023-05-22T10:09:35;97876.53;;;39.33;20.37
31225;BME280;17847;31.524;74.366;2023-05-22T10:12:09;97868.66;;;39.21;21.95
31225;BME280;17847;31.524;74.366;2023-05-22T10:14:44;97863.91;;;39.15;21.19
31225;BME280;17847;31.524;74.366;2023-05-22T10:17:15;97867.50;;;39.08;21.39
31225;BME280;17847;31.524;74.366;2023-05-22T10:19:46;97861.53;;;39.09;19.91
31225;BME280;17847;31.524;74.366;2023-05-22T10:22:16;97860.00;;;39.01;22.80
31225;BME280;17847;31.524;74.366;2023-05-22T10:24:49;97863.16;;;39.03;21.48
31225;BME280;17847;31.524;74.366;2023-05-22T10:27:20;97862.81;;;38.94;22.77
31225;BME280;17847;31.524;74.366;2023-05-22T10:30:01;97860.03;;;38.87;23.52
31225;BME280;17847;31.524;74.366;2023-05-22T10:36:04;97850.53;;;38.81;25.23
31225;BME280;17847;31.524;74.366;2023-05-22T10:41:24;97843.84;;;38.72;26.63
31225;BME280;17847;31.524;74.366;2023-05-22T10:43:55;97848.97;;;38.70;28.34
31225;BME280;17847;31.524;74.366;2023-05-22T10:46:31;97846.59;;;38.75;28.41
31225;BME280;17847;31.524;74.366;2023-05-22T10:49:04;97849.75;;;38.77;29.75
31225;BME280;17847;31.524;74.366;2023-05-22T10:51:33;97845.03;;;38.67;30.30
31225;BME280;17847;31.524;74.366;2023-05-22T10:54:03;97849.38;;;38.61;30.36
31225;BME280;17847;31.524;74.366;2023-05-22T10:56:33;97841.09;;;38.57;30.21
31225;BME280;17847;31.524;74.366;2023-05-22T10:59:04;97844.25;;;38.56;29.58
31225;BME280;17847;31.524;74.366;2023-05-22T11:01:35;97845.44;;;38.51;29.56
31225;BME280;17847;31.524;74.366;2023-05-22T11:04:14;97846.63;;;38.47;29.61
31225;BME280;17847;31.524;74.366;2023-05-22T11:07:11;97839.91;;;38.48;29.73
31225;BME280;17847;31.524;74.366;2023-05-22T11:09:44;97837.94;;;38.41;30.10
31225;BME280;17847;31.524;74.366;2023-05-22T11:14:57;97835.16;;;38.34;30.68
31225;BME280;17847;31.524;74.366;2023-05-22T11:17:29;97829.25;;;38.21;31.32
31225;BME280;17847;31.524;74.366;2023-05-22T11:25:14;97827.69;;;38.10;31.79
31225;BME280;17847;31.524;74.366;2023-05-22T11:27:46;97826.91;;;38.06;32.00
31225;BME280;17847;31.524;74.366;2023-05-22T11:30:16;97829.25;;;38.04;32.88
31225;BME280;17847;31.524;74.366;2023-05-22T11:32:46;97818.16;;;37.93;33.41
31225;BME280;17847;31.524;74.366;2023-05-22T11:35:17;97822.94;;;38.03;32.60
31225;BME280;17847;31.524;74.366;2023-05-22T11:37:49;97823.69;;;37.97;32.38
31225;BME280;17847;31.524;74.366;2023-05-22T11:40:20;97816.59;;;37.96;31.94
31225;BME280;17847;31.524;74.366;2023-05-22T11:42:51;97818.16;;;37.90;32.96
31225;BME280;17847;31.524;74.366;2023-05-22T11:45:20;97808.69;;;37.87;32.39
31225;BME280;17847;31.524;74.366;2023-05-22T11:47:51;97823.69;;;37.86;32.54
31225;BME280;17847;31.524;74.366;2023-05-22T11:50:23;97817.78;;;37.84;32.93
31225;BME280;17847;31.524;74.366;2023-05-22T11:53:08;97813.81;;;37.85;32.62
31225;BME280;17847;31.524;74.366;2023-05-22T11:55:38;97819.34;;;37.85;33.71
31225;BME280;17847;31.524;74.366;2023-05-22T11:58:07;97815.00;;;37.95;32.89
31225;BME280;17847;31.524;74.366;2023-05-22T12:00:37;97818.56;;;37.99;33.19
31225;BME280;17847;31.524;74.366;2023-05-22T12:03:07;97813.84;;;38.03;34.21
31225;BME280;17847;31.524;74.366;2023-05-22T12:05:36;97810.28;;;38.09;34.64
31225;BME280;17847;31.524;74.366;2023-05-22T12:08:05;97808.31;;;38.06;35.09
31225;BME280;17847;31.524;74.366;2023-05-22T12:10:35;97797.25;;;38.03;36.21
31225;BME280;17847;31.524;74.366;2023-05-22T12:13:04;97800.00;;;38.03;36.11
31225;BME280;17847;31.524;74.366;2023-05-22T12:15:34;97798.03;;;38.03;35.91
31225;BME280;17847;31.524;74.366;2023-05-22T12:18:07;97795.25;;;37.96;36.50
31225;BME280;17847;31.524;74.366;2023-05-22T12:20:41;97787.34;;;37.88;36.28
31225;BME280;17847;31.524;74.366;2023-05-22T12:23:22;97790.50;;;37.83;35.82
31225;BME280;17847;31.524;74.366;2023-05-22T12:26:00;97788.50;;;37.76;36.41
31225;BME280;17847;31.524;74.366;2023-05-22T12:28:32;97785.38;;;37.70;35.82
31225;BME280;17847;31.524;74.366;2023-05-22T12:31:02;97786.94;;;37.57;36.48
31225;BME280;17847;31.524;74.366;2023-05-22T12:33:31;97784.97;;;37.61;36.47
31225;BME280;17847;31.524;74.366;2023-05-22T12:36:08;97778.63;;;37.54;37.43
31225;BME280;17847;31.524;74.366;2023-05-22T12:38:39;97774.63;;;37.41;37.14
31225;BME280;17847;31.524;74.366;2023-05-22T12:41:08;97776.19;;;37.27;37.63
31225;BME280;17847;31.524;74.366;2023-05-22T12:43:38;97777.34;;;37.16;37.79
31225;BME280;17847;31.524;74.366;2023-05-22T12:46:07;97780.09;;;37.09;36.90
31225;BME280;17847;31.524;74.366;2023-05-22T12:48:37;97776.06;;;36.99;37.82
31225;BME280;17847;31.524;74.366;2023-05-22T12:51:07;97770.94;;;36.94;37.93
31225;BME280;17847;31.524;74.366;2023-05-22T12:53:37;97772.09;;;36.86;38.15
31225;BME280;17847;31.524;74.366;2023-05-22T12:56:06;97773.22;;;36.78;38.24
31225;BME280;17847;31.524;74.366;2023-05-22T12:58:36;97768.09;;;36.76;38.75
31225;BME280;17847;31.524;74.366;2023-05-22T13:01:05;97777.53;;;36.68;39.30
31225;BME280;17847;31.524;74.366;2023-05-22T13:03:35;97775.03;;;36.56;39.23
31225;BME280;17847;31.524;74.366;2023-05-22T13:06:05;97782.09;;;36.46;39.83
31225;BME280;17847;31.524;74.366;2023-05-22T13:08:34;97784.41;;;36.37;41.86
31225;BME280;17847;31.524;74.366;2023-05-22T13:11:04;97787.09;;;36.30;41.97
31225;BME280;17847;31.524;74.366;2023-05-22T13:13:34;97789.03;;;36.23;41.80
31225;BME280;17847;31.524;74.366;2023-05-22T13:16:03;97780.31;;;36.14;42.32
31225;BME280;17847;31.524;74.366;2023-05-22T13:18:33;97792.41;;;36.02;44.20
31225;BME280;17847;31.524;74.366;2023-05-22T13:21:02;97787.22;;;35.93;42.23
31225;BME280;17847;31.524;74.366;2023-05-22T13:23:32;97791.94;;;35.93;43.14
31225;BME280;17847;31.524;74.366;2023-05-22T13:26:01;97793.47;;;35.90;44.61
31225;BME280;17847;31.524;74.366;2023-05-22T13:28:30;97795.38;;;35.83;43.85
31225;BME280;17847;31.524;74.366;2023-05-22T13:31:00;97783.44;;;35.68;45.47
31225;BME280;17847;31.524;74.366;2023-05-22T13:33:29;97797.19;;;35.65;43.35
31225;BME280;17847;31.524;74.366;2023-05-22T13:35:59;97796.03;;;35.66;43.10
31225;BME280;17847;31.524;74.366;2023-05-22T13:38:29;97796.34;;;35.60;44.00
31225;BME280;17847;31.524;74.366;2023-05-22T13:40:59;97793.47;;;35.50;45.44
31225;BME280;17847;31.524;74.366;2023-05-22T13:43:28;97800.06;;;35.42;44.86
31225;BME280;17847;31.524;74.366;2023-05-22T13:45:58;97803.13;;;35.33;46.82